Chrisanthi — SX7108 — position and weather

sailwx.info

Track history (hours):
 
Tides and Currents Weather Stations Pressure Air Temp Water Temp Dewpoint Dewpoint Depression Visibility Wind Speed Wind Dir Waves Ship Positions

Chrisanthi

Last reported at 2015-Mar-05 13:15 UTC. Time now 2015-Mar-06 11:10 UTC.
Position N 37°09' E 025°12'.

Length 56 m; draft 3.9 m.

Type: Tanker. MMSI: 237009100.

Date/timePositionNaut miles runAvg speedWind from/ knotsBaromVisibWave heightAir tempDewpointWater temp
2015-Mar-05 13:15N 37°09' E 025°12'6 8.9
2015-Mar-05 12:33N 37°09' E 025°19'3 3.2
2015-Mar-05 11:34N 37°06' E 025°22'0 0.1
2015-Mar-05 10:33N 37°06' E 025°22'0 0.2
2015-Mar-05 09:33N 37°06' E 025°22'0 0.0
2015-Mar-05 08:33N 37°06' E 025°22'0 0.5
2015-Mar-05 07:33N 37°07' E 025°22'4 4.0
2015-Mar-05 06:33N 37°10' E 025°25'11 8.4
2015-Mar-05 05:15N 37°10' E 025°39'8 0.2
2015-Mar-03 05:32N 37°02' E 025°44'9 9.2
2015-Mar-03 04:32N 36°56' E 025°36'4 0.3
2015-Mar-02 13:33N 36°52' E 025°35'26 0.9
2015-Mar-01 07:24N 37°07' E 025°08'910.1
2015-Mar-01 06:34N 37°10' E 025°18'5 5.0
2015-Mar-01 05:33N 37°06' E 025°21'0 0.0
2015-Mar-01 04:34N 37°06' E 025°22'0 0.0
2015-Mar-01 03:33N 37°06' E 025°22'0 0.0
2015-Mar-01 02:33N 37°06' E 025°22'0 0.0
2015-Mar-01 01:33N 37°06' E 025°22'1 0.8
2015-Mar-01 00:33N 37°06' E 025°22'0 0.0
2015-Feb-28 23:34N 37°06' E 025°22'0 0.0
2015-Feb-28 22:34N 37°06' E 025°22'0 0.0
2015-Feb-28 21:34N 37°06' E 025°22'0 0.0
2015-Feb-28 20:34N 37°06' E 025°22'0 0.0
2015-Feb-28 19:34N 37°06' E 025°22'0 0.0
2015-Feb-28 18:33N 37°06' E 025°22'5 4.5
2015-Feb-28 17:33N 37°11' E 025°20'1010.2
2015-Feb-28 16:33N 37°21' E 025°18'1110.6
2015-Feb-28 15:33N 37°31' E 025°16'5 0.7
2015-Feb-28 08:34N 37°36' E 025°18'10 9.7
2015-Feb-28 07:34N 37°30' E 025°27'9 9.4
2015-Feb-28 06:34N 37°23' E 025°35'10 9.9
2015-Feb-28 05:33N 37°19' E 025°47'  
2015-Feb-25 02:23N 37°10' E 025°48'1910.2
2015-Feb-25 00:33N 37°15' E 025°25'1010.4
2015-Feb-24 23:33N 37°16' E 025°12'1210.2
2015-Feb-24 22:23N 37°20' E 024°58'910.2
2015-Feb-24 21:33N 37°23' E 024°48'51 9.9
2015-Feb-24 16:24N 37°38' E 023°47'8 9.7
2015-Feb-24 15:33N 37°44' E 023°40'9 9.4
2015-Feb-24 14:33N 37°50' E 023°30'2010.1
2015-Feb-24 12:32N 37°55' E 023°05'0 0.0
2015-Feb-23 20:23N 37°55' E 023°05'  
Track history (hours):
 
Tides and Currents Weather Stations Pressure Air Temp Water Temp Dewpoint Dewpoint Depression Visibility Wind Speed Wind Dir Waves Ship Positions

Chrisanthi

Last reported at 2015-Mar-05 13:15 UTC. Time now 2015-Mar-06 11:10 UTC.
Position N 37°09' E 025°12'.

Length 56 m; draft 3.9 m.

Type: Tanker. MMSI: 237009100.

Date/timePositionNaut miles runAvg speedWind from/ knotsBaromVisibWave heightAir tempDewpointWater temp
2015-Mar-05 13:15N 37°09' E 025°12'6 8.9
2015-Mar-05 12:33N 37°09' E 025°19'3 3.2
2015-Mar-05 11:34N 37°06' E 025°22'0 0.1
2015-Mar-05 10:33N 37°06' E 025°22'0 0.2
2015-Mar-05 09:33N 37°06' E 025°22'0 0.0
2015-Mar-05 08:33N 37°06' E 025°22'0 0.5
2015-Mar-05 07:33N 37°07' E 025°22'4 4.0
2015-Mar-05 06:33N 37°10' E 025°25'11 8.4
2015-Mar-05 05:15N 37°10' E 025°39'8 0.2
2015-Mar-03 05:32N 37°02' E 025°44'9 9.2
2015-Mar-03 04:32N 36°56' E 025°36'4 0.3
2015-Mar-02 13:33N 36°52' E 025°35'26 0.9
2015-Mar-01 07:24N 37°07' E 025°08'910.1
2015-Mar-01 06:34N 37°10' E 025°18'5 5.0
2015-Mar-01 05:33N 37°06' E 025°21'0 0.0
2015-Mar-01 04:34N 37°06' E 025°22'0 0.0
2015-Mar-01 03:33N 37°06' E 025°22'0 0.0
2015-Mar-01 02:33N 37°06' E 025°22'0 0.0
2015-Mar-01 01:33N 37°06' E 025°22'1 0.8
2015-Mar-01 00:33N 37°06' E 025°22'0 0.0
2015-Feb-28 23:34N 37°06' E 025°22'0 0.0
2015-Feb-28 22:34N 37°06' E 025°22'0 0.0
2015-Feb-28 21:34N 37°06' E 025°22'0 0.0
2015-Feb-28 20:34N 37°06' E 025°22'0 0.0
2015-Feb-28 19:34N 37°06' E 025°22'0 0.0
2015-Feb-28 18:33N 37°06' E 025°22'5 4.5
2015-Feb-28 17:33N 37°11' E 025°20'1010.2
2015-Feb-28 16:33N 37°21' E 025°18'1110.6
2015-Feb-28 15:33N 37°31' E 025°16'5 0.7
2015-Feb-28 08:34N 37°36' E 025°18'10 9.7
2015-Feb-28 07:34N 37°30' E 025°27'9 9.4
2015-Feb-28 06:34N 37°23' E 025°35'10 9.9
2015-Feb-28 05:33N 37°19' E 025°47'  
2015-Feb-25 02:23N 37°10' E 025°48'1910.2
2015-Feb-25 00:33N 37°15' E 025°25'1010.4
2015-Feb-24 23:33N 37°16' E 025°12'1210.2
2015-Feb-24 22:23N 37°20' E 024°58'910.2
2015-Feb-24 21:33N 37°23' E 024°48'51 9.9
2015-Feb-24 16:24N 37°38' E 023°47'8 9.7
2015-Feb-24 15:33N 37°44' E 023°40'9 9.4
2015-Feb-24 14:33N 37°50' E 023°30'2010.1
2015-Feb-24 12:32N 37°55' E 023°05'0 0.0
2015-Feb-23 20:23N 37°55' E 023°05'  

Dump ship's entire track history